G.bellini — IKGF — position and weather

sailwx.info

Track history (hours):
 
Tides and Currents Weather Stations Pressure Air Temp Water Temp Dewpoint Dewpoint Depression Visibility Wind Speed Wind Dir Waves Ship Positions

G.bellini

Last reported at 2017-Jun-24 17:51 UTC. Time now 2017-Jun-25 08:51 UTC.
Position N 42°49' E 010°26'.

Length 72 m; draft 3.3 m.

Type: Ship. MMSI: 247041900.

Date/timePositionNaut miles runAvg speedWind from/ knotsBaromVisibWave heightAir tempDewpointWater temp
2017-Jun-24 17:51N 42°49' E 010°26'514.9
2017-Jun-24 17:31N 42°53' E 010°31'3 5.1
2017-Jun-24 16:54N 42°56' E 010°33'2 5.7
2017-Jun-24 16:28N 42°53' E 010°32'6 6.8
2017-Jun-24 15:36N 42°49' E 010°26'114.4
2017-Jun-24 15:31N 42°50' E 010°28'714.1
2017-Jun-24 14:59N 42°56' E 010°34'0 0.5
2017-Jun-24 14:13N 42°56' E 010°33'8 6.8
2017-Jun-24 12:58N 42°49' E 010°26'714.5
2017-Jun-24 12:31N 42°54' E 010°32'6 2.3
2017-Jun-24 09:50N 42°49' E 010°27'0 0.0
2017-Jun-23 15:31N 42°49' E 010°27'014.4
2017-Jun-23 15:30N 42°49' E 010°27'814.9
2017-Jun-23 15:00N 42°55' E 010°33'7 3.2
2017-Jun-23 12:53N 42°50' E 010°28'2 1.2
2017-Jun-23 10:47N 42°52' E 010°30'3 2.7
2017-Jun-23 09:45N 42°50' E 010°27'0 0.0
2017-Jun-22 16:14N 42°49' E 010°27'314.8
2017-Jun-22 16:01N 42°52' E 010°30'5 5.5
2017-Jun-22 15:09N 42°56' E 010°33'3 9.7
2017-Jun-22 14:51N 42°53' E 010°32'5 4.7
2017-Jun-22 13:45N 42°49' E 010°27'414.6
2017-Jun-22 13:30N 42°52' E 010°30'5 3.1
2017-Jun-22 12:01N 42°56' E 010°34'014.6
2017-Jun-22 12:00N 42°56' E 010°34'9 4.0
2017-Jun-22 09:48N 42°49' E 010°26'414.6
2017-Jun-22 09:30N 42°52' E 010°30'4 4.9
2017-Jun-22 08:39N 42°56' E 010°33'1 8.2
2017-Jun-22 08:30N 42°55' E 010°34'7 5.0
2017-Jun-22 07:01N 42°49' E 010°27'014.8
2017-Jun-22 07:00N 42°50' E 010°27'814.8
2017-Jun-22 06:28N 42°56' E 010°34'0 0.5
2017-Jun-22 05:37N 42°56' E 010°34'513.4
2017-Jun-22 05:15N 42°52' E 010°30'3 0.3
2017-Jun-21 16:10N 42°50' E 010°27'214.3
2017-Jun-21 16:00N 42°51' E 010°29'3 1.3
2017-Jun-21 13:52N 42°49' E 010°26'4 1.9
2017-Jun-21 11:41N 42°52' E 010°30'4 1.9
2017-Jun-21 09:46N 42°50' E 010°27'414.4
2017-Jun-21 09:30N 42°52' E 010°30'4 5.0
2017-Jun-21 08:37N 42°56' E 010°33'311.5
2017-Jun-21 08:23N 42°53' E 010°32'6 4.2
2017-Jun-21 07:00N 42°49' E 010°27'1 0.0
2017-Jun-20 16:20N 42°50' E 010°27'514.4
2017-Jun-20 16:01N 42°53' E 010°31'0 0.3
2017-Jun-20 14:51N 42°53' E 010°31'13 9.1
2017-Jun-20 13:22N 42°41' E 010°23'1214.6
2017-Jun-20 12:33N 42°36' E 010°08'114.6
2017-Jun-20 12:30N 42°36' E 010°07'1 2.4
2017-Jun-20 12:00N 42°35' E 010°06'0 0.0
2017-Jun-20 11:30N 42°35' E 010°06'0 0.0
2017-Jun-20 11:00N 42°35' E 010°06'0 0.0
2017-Jun-20 10:30N 42°35' E 010°06'0 0.0
2017-Jun-20 10:00N 42°35' E 010°06'0 0.0
2017-Jun-20 09:30N 42°35' E 010°06'2 3.5
2017-Jun-20 09:00N 42°36' E 010°08'914.5
2017-Jun-20 08:22N 42°40' E 010°19'11 8.2
2017-Jun-20 07:05N 42°49' E 010°26'114.0
2017-Jun-20 07:01N 42°50' E 010°27'7 5.4
2017-Jun-20 05:38N 42°56' E 010°33'1 9.7
2017-Jun-20 05:29N 42°55' E 010°33'7 0.6
2017-Jun-19 17:48N 42°50' E 010°27'714.8
2017-Jun-19 17:20N 42°55' E 010°33'7 3.9
2017-Jun-19 15:29N 42°49' E 010°27'714.7
2017-Jun-19 15:00N 42°55' E 010°33'4 3.2
2017-Jun-19 13:49N 42°52' E 010°30'3 4.0
2017-Jun-19 12:57N 42°49' E 010°27'714.6
2017-Jun-19 12:26N 42°55' E 010°33'7 0.4
2017-Jun-18 17:50N 42°49' E 010°27'514.4
2017-Jun-18 17:30N 42°53' E 010°31'3 4.1
2017-Jun-18 16:43N 42°56' E 010°33'611.9
2017-Jun-18 16:14N 42°51' E 010°29'2 3.3
2017-Jun-18 15:31N 42°49' E 010°27'014.8
2017-Jun-18 15:30N 42°49' E 010°27'714.3
2017-Jun-18 15:00N 42°55' E 010°33'7 0.3
2017-Jun-17 17:50N 42°49' E 010°27'514.7
2017-Jun-17 17:31N 42°53' E 010°31'3 3.9
2017-Jun-17 16:44N 42°56' E 010°33'8 6.3
2017-Jun-17 15:29N 42°49' E 010°27'714.7
2017-Jun-17 15:00N 42°55' E 010°33'3 3.2
2017-Jun-17 13:57N 42°52' E 010°30'4 4.4
2017-Jun-17 12:59N 42°49' E 010°26'714.6
2017-Jun-17 12:29N 42°55' E 010°33'7 2.9
2017-Jun-17 09:55N 42°49' E 010°26'614.7
2017-Jun-17 09:30N 42°54' E 010°32'3 2.9
2017-Jun-17 08:38N 42°56' E 010°33'712.4
2017-Jun-17 08:02N 42°50' E 010°27'1 0.9
2017-Jun-17 06:54N 42°51' E 010°28'2 0.2
2017-Jun-16 17:54N 42°49' E 010°26'614.8
2017-Jun-16 17:30N 42°53' E 010°32'3 3.6
2017-Jun-16 16:43N 42°56' E 010°33'310.5
2017-Jun-16 16:27N 42°53' E 010°32'5 6.0
2017-Jun-16 15:33N 42°49' E 010°27'114.2
2017-Jun-16 15:30N 42°50' E 010°27'5 3.0
2017-Jun-16 13:57N 42°53' E 010°32'5 5.1
2017-Jun-16 12:55N 42°49' E 010°27'714.8
2017-Jun-16 12:26N 42°55' E 010°33'1 0.8
2017-Jun-16 11:20N 42°56' E 010°33'3 7.0
2017-Jun-16 10:56N 42°53' E 010°32'5 4.8
2017-Jun-16 09:48N 42°49' E 010°27'414.9
2017-Jun-16 09:30N 42°53' E 010°31'4 4.8
2017-Jun-16 08:40N 42°56' E 010°33'411.3
2017-Jun-16 08:20N 42°53' E 010°31'5 3.4
2017-Jun-16 07:00N 42°49' E 010°27'8 5.9
2017-Jun-16 05:35N 42°56' E 010°34'314.3
2017-Jun-16 05:22N 42°53' E 010°32'5 0.4
2017-Jun-15 16:16N 42°49' E 010°27'514.5
2017-Jun-15 15:56N 42°53' E 010°31'4 4.2
2017-Jun-15 15:05N 42°56' E 010°34'413.6
2017-Jun-15 14:49N 42°53' E 010°31'5 4.3
2017-Jun-15 13:46N 42°50' E 010°27'414.7
2017-Jun-15 13:30N 42°52' E 010°30'4 2.8
2017-Jun-15 12:07N 42°56' E 010°33'1 6.2
2017-Jun-15 12:01N 42°56' E 010°34'714.1
2017-Jun-15 11:30N 42°50' E 010°28'1 0.5
2017-Jun-15 09:45N 42°50' E 010°27'414.7
2017-Jun-15 09:30N 42°52' E 010°30'4 4.9
2017-Jun-15 08:44N 42°56' E 010°33'1 5.9
2017-Jun-15 08:30N 42°54' E 010°33'6 4.2
2017-Jun-15 07:00N 42°50' E 010°27'  
Track history (hours):
 
Tides and Currents Weather Stations Pressure Air Temp Water Temp Dewpoint Dewpoint Depression Visibility Wind Speed Wind Dir Waves Ship Positions

G.bellini

Last reported at 2017-Jun-24 17:51 UTC. Time now 2017-Jun-25 08:51 UTC.
Position N 42°49' E 010°26'.

Length 72 m; draft 3.3 m.

Type: Ship. MMSI: 247041900.

Date/timePositionNaut miles runAvg speedWind from/ knotsBaromVisibWave heightAir tempDewpointWater temp
2017-Jun-24 17:51N 42°49' E 010°26'514.9
2017-Jun-24 17:31N 42°53' E 010°31'3 5.1
2017-Jun-24 16:54N 42°56' E 010°33'2 5.7
2017-Jun-24 16:28N 42°53' E 010°32'6 6.8
2017-Jun-24 15:36N 42°49' E 010°26'114.4
2017-Jun-24 15:31N 42°50' E 010°28'714.1
2017-Jun-24 14:59N 42°56' E 010°34'0 0.5
2017-Jun-24 14:13N 42°56' E 010°33'8 6.8
2017-Jun-24 12:58N 42°49' E 010°26'714.5
2017-Jun-24 12:31N 42°54' E 010°32'6 2.3
2017-Jun-24 09:50N 42°49' E 010°27'0 0.0
2017-Jun-23 15:31N 42°49' E 010°27'014.4
2017-Jun-23 15:30N 42°49' E 010°27'814.9
2017-Jun-23 15:00N 42°55' E 010°33'7 3.2
2017-Jun-23 12:53N 42°50' E 010°28'2 1.2
2017-Jun-23 10:47N 42°52' E 010°30'3 2.7
2017-Jun-23 09:45N 42°50' E 010°27'0 0.0
2017-Jun-22 16:14N 42°49' E 010°27'314.8
2017-Jun-22 16:01N 42°52' E 010°30'5 5.5
2017-Jun-22 15:09N 42°56' E 010°33'3 9.7
2017-Jun-22 14:51N 42°53' E 010°32'5 4.7
2017-Jun-22 13:45N 42°49' E 010°27'414.6
2017-Jun-22 13:30N 42°52' E 010°30'5 3.1
2017-Jun-22 12:01N 42°56' E 010°34'014.6
2017-Jun-22 12:00N 42°56' E 010°34'9 4.0
2017-Jun-22 09:48N 42°49' E 010°26'414.6
2017-Jun-22 09:30N 42°52' E 010°30'4 4.9
2017-Jun-22 08:39N 42°56' E 010°33'1 8.2
2017-Jun-22 08:30N 42°55' E 010°34'7 5.0
2017-Jun-22 07:01N 42°49' E 010°27'014.8
2017-Jun-22 07:00N 42°50' E 010°27'814.8
2017-Jun-22 06:28N 42°56' E 010°34'0 0.5
2017-Jun-22 05:37N 42°56' E 010°34'513.4
2017-Jun-22 05:15N 42°52' E 010°30'3 0.3
2017-Jun-21 16:10N 42°50' E 010°27'214.3
2017-Jun-21 16:00N 42°51' E 010°29'3 1.3
2017-Jun-21 13:52N 42°49' E 010°26'4 1.9
2017-Jun-21 11:41N 42°52' E 010°30'4 1.9
2017-Jun-21 09:46N 42°50' E 010°27'414.4
2017-Jun-21 09:30N 42°52' E 010°30'4 5.0
2017-Jun-21 08:37N 42°56' E 010°33'311.5
2017-Jun-21 08:23N 42°53' E 010°32'6 4.2
2017-Jun-21 07:00N 42°49' E 010°27'1 0.0
2017-Jun-20 16:20N 42°50' E 010°27'514.4
2017-Jun-20 16:01N 42°53' E 010°31'0 0.3
2017-Jun-20 14:51N 42°53' E 010°31'13 9.1
2017-Jun-20 13:22N 42°41' E 010°23'1214.6
2017-Jun-20 12:33N 42°36' E 010°08'114.6
2017-Jun-20 12:30N 42°36' E 010°07'1 2.4
2017-Jun-20 12:00N 42°35' E 010°06'0 0.0
2017-Jun-20 11:30N 42°35' E 010°06'0 0.0
2017-Jun-20 11:00N 42°35' E 010°06'0 0.0
2017-Jun-20 10:30N 42°35' E 010°06'0 0.0
2017-Jun-20 10:00N 42°35' E 010°06'0 0.0
2017-Jun-20 09:30N 42°35' E 010°06'2 3.5
2017-Jun-20 09:00N 42°36' E 010°08'914.5
2017-Jun-20 08:22N 42°40' E 010°19'11 8.2
2017-Jun-20 07:05N 42°49' E 010°26'114.0
2017-Jun-20 07:01N 42°50' E 010°27'7 5.4
2017-Jun-20 05:38N 42°56' E 010°33'1 9.7
2017-Jun-20 05:29N 42°55' E 010°33'7 0.6
2017-Jun-19 17:48N 42°50' E 010°27'714.8
2017-Jun-19 17:20N 42°55' E 010°33'7 3.9
2017-Jun-19 15:29N 42°49' E 010°27'714.7
2017-Jun-19 15:00N 42°55' E 010°33'4 3.2
2017-Jun-19 13:49N 42°52' E 010°30'3 4.0
2017-Jun-19 12:57N 42°49' E 010°27'714.6
2017-Jun-19 12:26N 42°55' E 010°33'7 0.4
2017-Jun-18 17:50N 42°49' E 010°27'514.4
2017-Jun-18 17:30N 42°53' E 010°31'3 4.1
2017-Jun-18 16:43N 42°56' E 010°33'611.9
2017-Jun-18 16:14N 42°51' E 010°29'2 3.3
2017-Jun-18 15:31N 42°49' E 010°27'014.8
2017-Jun-18 15:30N 42°49' E 010°27'714.3
2017-Jun-18 15:00N 42°55' E 010°33'7 0.3
2017-Jun-17 17:50N 42°49' E 010°27'514.7
2017-Jun-17 17:31N 42°53' E 010°31'3 3.9
2017-Jun-17 16:44N 42°56' E 010°33'8 6.3
2017-Jun-17 15:29N 42°49' E 010°27'714.7
2017-Jun-17 15:00N 42°55' E 010°33'3 3.2
2017-Jun-17 13:57N 42°52' E 010°30'4 4.4
2017-Jun-17 12:59N 42°49' E 010°26'714.6
2017-Jun-17 12:29N 42°55' E 010°33'7 2.9
2017-Jun-17 09:55N 42°49' E 010°26'614.7
2017-Jun-17 09:30N 42°54' E 010°32'3 2.9
2017-Jun-17 08:38N 42°56' E 010°33'712.4
2017-Jun-17 08:02N 42°50' E 010°27'1 0.9
2017-Jun-17 06:54N 42°51' E 010°28'2 0.2
2017-Jun-16 17:54N 42°49' E 010°26'614.8
2017-Jun-16 17:30N 42°53' E 010°32'3 3.6
2017-Jun-16 16:43N 42°56' E 010°33'310.5
2017-Jun-16 16:27N 42°53' E 010°32'5 6.0
2017-Jun-16 15:33N 42°49' E 010°27'114.2
2017-Jun-16 15:30N 42°50' E 010°27'5 3.0
2017-Jun-16 13:57N 42°53' E 010°32'5 5.1
2017-Jun-16 12:55N 42°49' E 010°27'714.8
2017-Jun-16 12:26N 42°55' E 010°33'1 0.8
2017-Jun-16 11:20N 42°56' E 010°33'3 7.0
2017-Jun-16 10:56N 42°53' E 010°32'5 4.8
2017-Jun-16 09:48N 42°49' E 010°27'414.9
2017-Jun-16 09:30N 42°53' E 010°31'4 4.8
2017-Jun-16 08:40N 42°56' E 010°33'411.3
2017-Jun-16 08:20N 42°53' E 010°31'5 3.4
2017-Jun-16 07:00N 42°49' E 010°27'8 5.9
2017-Jun-16 05:35N 42°56' E 010°34'314.3
2017-Jun-16 05:22N 42°53' E 010°32'5 0.4
2017-Jun-15 16:16N 42°49' E 010°27'514.5
2017-Jun-15 15:56N 42°53' E 010°31'4 4.2
2017-Jun-15 15:05N 42°56' E 010°34'413.6
2017-Jun-15 14:49N 42°53' E 010°31'5 4.3
2017-Jun-15 13:46N 42°50' E 010°27'414.7
2017-Jun-15 13:30N 42°52' E 010°30'4 2.8
2017-Jun-15 12:07N 42°56' E 010°33'1 6.2
2017-Jun-15 12:01N 42°56' E 010°34'714.1
2017-Jun-15 11:30N 42°50' E 010°28'1 0.5
2017-Jun-15 09:45N 42°50' E 010°27'414.7
2017-Jun-15 09:30N 42°52' E 010°30'4 4.9
2017-Jun-15 08:44N 42°56' E 010°33'1 5.9
2017-Jun-15 08:30N 42°54' E 010°33'6 4.2
2017-Jun-15 07:00N 42°50' E 010°27'  

Dump ship's entire track history